createdAt,value
2022-10-02T00:02:39.197Z,95937.03
2022-10-02T00:07:46.431Z,95945.28
2022-10-02T00:12:53.020Z,95955.81
2022-10-02T00:17:59.293Z,95963.66
2022-10-02T00:23:03.652Z,95977.34
2022-10-02T00:28:14.575Z,95979.31
2022-10-02T00:33:43.509Z,95982.81
2022-10-02T00:38:58.417Z,95992.22
2022-10-02T00:44:05.882Z,95993.78
2022-10-02T00:49:19.476Z,95992.97
2022-10-02T00:54:24.076Z,96002.00
2022-10-02T00:59:57.772Z,96002.75
2022-10-02T01:05:01.756Z,96001.59
2022-10-02T01:10:03.884Z,95990.25
2022-10-02T01:15:20.942Z,95991.06
2022-10-02T01:20:30.062Z,95991.81
2022-10-02T01:25:32.266Z,96007.91
2022-10-02T01:30:36.755Z,96008.69
2022-10-02T01:35:39.993Z,96001.25
2022-10-02T01:40:41.999Z,96002.81
2022-10-02T01:45:52.402Z,96002.75
2022-10-02T01:51:16.524Z,95990.25
2022-10-02T01:56:26.788Z,95998.06
2022-10-02T02:01:47.641Z,95992.97
2022-10-02T02:07:09.100Z,95998.06
2022-10-02T02:12:49.444Z,96007.84
2022-10-02T02:18:01.380Z,96002.75
2022-10-02T02:23:13.128Z,95998.47
2022-10-02T02:28:18.966Z,95999.66
2022-10-02T02:33:31.085Z,95999.66
2022-10-02T02:38:39.918Z,96004.78
2022-10-02T02:43:46.471Z,96022.41
2022-10-02T02:49:00.272Z,96014.59
2022-10-02T02:54:01.781Z,96014.19
2022-10-02T02:59:12.279Z,96015.75
2022-10-02T03:04:14.805Z,96019.31
2022-10-02T03:09:19.166Z,96029.09
2022-10-02T03:14:23.681Z,96027.13
2022-10-02T03:19:46.348Z,96034.56
2022-10-02T03:25:10.762Z,96018.50
2022-10-02T03:30:14.527Z,96015.75
2022-10-02T03:35:17.501Z,96027.53
2022-10-02T03:40:26.084Z,96031.44
2022-10-02T03:45:50.098Z,96034.56
2022-10-02T03:50:51.040Z,96023.25
2022-10-02T03:55:59.874Z,96022.47
2022-10-02T04:01:28.105Z,96033.44
2022-10-02T04:06:44.147Z,96022.47
2022-10-02T04:12:13.131Z,96017.41
2022-10-02T04:17:26.652Z,96035.44
2022-10-02T04:22:42.983Z,96035.06
2022-10-02T04:27:51.106Z,96013.88
2022-10-02T04:32:53.943Z,96024.06
2022-10-02T04:38:17.395Z,96029.97
2022-10-02T04:43:46.977Z,96024.84
2022-10-02T04:49:15.036Z,96029.97
2022-10-02T04:54:45.131Z,96011.53
2022-10-02T05:00:02.303Z,96025.25
2022-10-02T05:05:10.048Z,96026.03
2022-10-02T05:10:31.154Z,96030.75
2022-10-02T05:15:56.264Z,96043.28
2022-10-02T05:21:36.231Z,96041.72
2022-10-02T05:26:54.174Z,96056.63
2022-10-02T05:32:05.814Z,96057.81
2022-10-02T05:37:16.241Z,96053.88
2022-10-02T05:42:41.118Z,96065.63
2022-10-02T05:47:46.395Z,96061.72
2022-10-02T05:52:57.828Z,96062.47
2022-10-02T05:58:20.631Z,96063.25
2022-10-02T06:03:33.726Z,96057.78
2022-10-02T06:09:01.283Z,96062.09
2022-10-02T06:14:10.655Z,96062.84
2022-10-02T06:19:23.614Z,96058.50
2022-10-02T06:24:44.926Z,96066.31
2022-10-02T06:29:54.315Z,96058.06
2022-10-02T06:34:56.761Z,96051.44
2022-10-02T06:40:37.510Z,96058.50
2022-10-02T06:46:11.176Z,96049.47
2022-10-02T06:51:21.442Z,96051.00
2022-10-02T06:56:41.183Z,96051.38
2022-10-02T07:02:08.410Z,96051.38
2022-10-02T07:07:27.188Z,96054.91
2022-10-02T07:13:12.291Z,96046.31
2022-10-02T07:18:33.701Z,96047.47
2022-10-02T07:24:02.660Z,96045.91
2022-10-02T07:29:13.512Z,96040.38
2022-10-02T07:34:29.044Z,96044.28
2022-10-02T07:39:54.857Z,96038.34
2022-10-02T07:45:27.787Z,96054.81
2022-10-02T07:50:59.569Z,96068.94
2022-10-02T07:56:02.320Z,96066.19
2022-10-02T08:01:12.603Z,96067.72
2022-10-02T08:06:15.756Z,96075.91
2022-10-02T08:11:31.393Z,96073.94
2022-10-02T08:16:49.661Z,96080.16
2022-10-02T08:22:00.843Z,96071.50
2022-10-02T08:27:08.356Z,96078.13
2022-10-02T08:32:13.643Z,96073.41
2022-10-02T08:37:24.241Z,96080.44
2022-10-02T08:42:44.748Z,96076.88
2022-10-02T08:48:07.912Z,96071.72
2022-10-02T08:53:28.357Z,96067.38
2022-10-02T08:58:53.900Z,96059.06
2022-10-02T09:04:35.969Z,96061.00
2022-10-02T09:09:45.875Z,96065.28
2022-10-02T09:14:59.624Z,96051.94
2022-10-02T09:20:21.352Z,96045.25
2022-10-02T09:25:44.783Z,96034.22
2022-10-02T09:30:49.287Z,96036.16
2022-10-02T09:36:16.849Z,96036.47
2022-10-02T09:41:41.192Z,96034.56
2022-10-02T09:47:00.582Z,96035.34
2022-10-02T09:52:24.235Z,96025.91
2022-10-02T09:57:54.276Z,96030.97
2022-10-02T10:03:13.779Z,96019.56
2022-10-02T10:08:36.534Z,96013.63
2022-10-02T10:14:03.659Z,96024.16
2022-10-02T10:19:27.413Z,96012.38
2022-10-02T10:24:55.210Z,96032.34
2022-10-02T10:30:38.984Z,96018.56
2022-10-02T10:35:59.997Z,96029.13
2022-10-02T10:41:24.335Z,96021.22
2022-10-02T10:46:45.163Z,96019.97
2022-10-02T10:52:14.010Z,96018.81
2022-10-02T10:57:37.663Z,96005.41
2022-10-02T11:02:45.124Z,95988.09
2022-10-02T11:08:31.681Z,95975.06
2022-10-02T11:14:05.550Z,95983.75
2022-10-02T11:19:27.846Z,95985.69
2022-10-02T11:24:55.186Z,95991.19
2022-10-02T11:30:20.700Z,95973.91
2022-10-02T11:35:25.179Z,95979.84
2022-10-02T11:40:57.807Z,95968.88
2022-10-02T11:46:33.518Z,95971.25
2022-10-02T11:51:56.393Z,95973.97
2022-10-02T11:57:16.542Z,95957.41
2022-10-02T12:02:32.629Z,95953.81
2022-10-02T12:07:56.031Z,95965.25
2022-10-02T12:13:16.337Z,95955.03
2022-10-02T12:18:39.488Z,95966.03
2022-10-02T12:24:14.706Z,95956.25
2022-10-02T12:29:30.192Z,95963.00
2022-10-02T12:34:56.244Z,95979.97
2022-10-02T12:40:45.302Z,95965.19
2022-10-02T12:46:07.933Z,95961.69
2022-10-02T12:51:46.468Z,95972.75
2022-10-02T12:57:40.945Z,95969.25
2022-10-02T13:03:02.034Z,95977.53
2022-10-02T13:08:25.296Z,95948.47
2022-10-02T13:13:40.111Z,95934.34
2022-10-02T13:19:09.152Z,95922.91
2022-10-02T13:24:29.448Z,95922.16
2022-10-02T13:29:51.879Z,95933.13
2022-10-02T13:35:20.634Z,95950.00
2022-10-02T13:40:29.601Z,95956.31
2022-10-02T13:45:55.931Z,95972.03
2022-10-02T13:51:08.305Z,95963.03
2022-10-02T13:56:31.964Z,95937.13
2022-10-02T14:01:51.043Z,95942.34
2022-10-02T14:07:09.824Z,95940.78
2022-10-02T14:12:40.950Z,95931.41
2022-10-02T14:18:07.231Z,95910.59
2022-10-02T14:23:14.781Z,95894.09
2022-10-02T14:28:29.781Z,95887.47
2022-10-02T14:33:52.855Z,95886.69
2022-10-02T14:39:10.870Z,95909.06
2022-10-02T14:44:42.095Z,95916.91
2022-10-02T14:50:12.675Z,95927.84
2022-10-02T14:55:20.195Z,95920.34
2022-10-02T15:00:27.387Z,95924.63
2022-10-02T15:05:41.852Z,95926.59
2022-10-02T15:10:46.282Z,95932.88
2022-10-02T15:16:14.739Z,95926.63
2022-10-02T15:21:26.862Z,95921.97
2022-10-02T15:26:31.394Z,95910.25
2022-10-02T15:32:18.271Z,95910.66
2022-10-02T15:37:42.395Z,95908.69
2022-10-02T15:42:58.033Z,95919.34
2022-10-02T15:48:15.970Z,95912.31
2022-10-02T15:53:29.429Z,95922.94
2022-10-02T15:58:52.794Z,95923.41
2022-10-02T16:04:07.540Z,95936.34
2022-10-02T16:09:40.067Z,95944.22
2022-10-02T16:14:55.824Z,95931.38
2022-10-02T16:20:06.322Z,95925.88
2022-10-02T16:25:45.658Z,95922.81
2022-10-02T16:30:50.164Z,95937.75
2022-10-02T16:36:08.158Z,95944.78
2022-10-02T16:41:28.101Z,95943.97
2022-10-02T16:46:40.254Z,95942.78
2022-10-02T16:51:45.089Z,95952.19
2022-10-02T16:57:00.272Z,95945.88
2022-10-02T17:02:19.370Z,95956.91
2022-10-02T17:07:49.583Z,95959.34
2022-10-02T17:12:59.589Z,95973.84
2022-10-02T17:18:03.766Z,95994.59
2022-10-02T17:23:20.000Z,96008.75
2022-10-02T17:28:36.071Z,96022.06
2022-10-02T17:33:52.320Z,96036.59
2022-10-02T17:39:04.169Z,96027.56
2022-10-02T17:44:14.996Z,96040.13
2022-10-02T17:49:30.155Z,96049.56
2022-10-02T17:55:31.200Z,96065.66
2022-10-02T18:00:36.227Z,96080.94
2022-10-02T18:05:57.419Z,96095.44
2022-10-02T18:11:07.631Z,96096.63
2022-10-02T18:16:29.589Z,96098.59
2022-10-02T18:21:53.756Z,96097.81
2022-10-02T18:27:36.991Z,96109.97
2022-10-02T18:33:03.071Z,96114.72
2022-10-02T18:38:28.972Z,96113.94
2022-10-02T18:43:54.470Z,96126.06
2022-10-02T18:49:33.265Z,96132.34
2022-10-02T18:55:05.967Z,96131.19
2022-10-02T19:00:26.779Z,96138.25
2022-10-02T19:05:39.080Z,96143.31
2022-10-02T19:10:44.851Z,96153.53
2022-10-02T19:15:48.501Z,96155.91
2022-10-02T19:20:55.409Z,96162.19
2022-10-02T19:26:02.901Z,96162.97
2022-10-02T19:31:07.952Z,96165.31
2022-10-02T19:36:18.145Z,96164.16
2022-10-02T19:41:22.670Z,96177.88
2022-10-02T19:46:34.908Z,96181.41
2022-10-02T19:51:47.726Z,96191.66
2022-10-02T19:56:56.602Z,96187.31
2022-10-02T20:02:03.743Z,96194.78
2022-10-02T20:07:05.409Z,96193.25
2022-10-02T20:12:16.766Z,96190.53
2022-10-02T20:17:19.080Z,96193.66
2022-10-02T20:22:38.845Z,96197.59
2022-10-02T20:27:47.013Z,96206.22
2022-10-02T20:33:06.519Z,96212.88
2022-10-02T20:38:26.144Z,96216.03
2022-10-02T20:43:48.190Z,96215.25
2022-10-02T20:49:09.352Z,96227.81
2022-10-02T20:54:23.820Z,96235.66
2022-10-02T20:59:28.090Z,96249.41
2022-10-02T21:04:49.154Z,96244.69
2022-10-02T21:10:30.348Z,96246.28
2022-10-02T21:15:46.726Z,96257.28
2022-10-02T21:21:17.737Z,96264.34
2022-10-02T21:26:26.983Z,96271.41
2022-10-02T21:31:58.380Z,96269.81
2022-10-02T21:37:16.898Z,96275.69
2022-10-02T21:42:31.792Z,96290.59
2022-10-02T21:48:04.563Z,96297.66
2022-10-02T21:53:43.302Z,96301.56
2022-10-02T21:59:23.909Z,96309.81
2022-10-02T22:04:46.373Z,96314.50
2022-10-02T22:09:59.430Z,96315.66
2022-10-02T22:15:21.944Z,96323.53
2022-10-02T22:20:45.350Z,96322.72
2022-10-02T22:26:09.470Z,96332.91
2022-10-02T22:31:36.873Z,96323.13
2022-10-02T22:37:26.712Z,96324.31
2022-10-02T22:42:53.889Z,96325.50
2022-10-02T22:48:13.186Z,96328.22
2022-10-02T22:53:20.814Z,96334.09
2022-10-02T22:58:34.663Z,96341.16
2022-10-02T23:04:21.230Z,96354.50
2022-10-02T23:09:29.106Z,96352.53
2022-10-02T23:14:54.495Z,96360.38
2022-10-02T23:20:16.699Z,96359.56
2022-10-02T23:25:33.073Z,96363.50
2022-10-02T23:30:43.253Z,96368.56
2022-10-02T23:35:57.798Z,96367.81
2022-10-02T23:41:27.391Z,96371.31
2022-10-02T23:46:36.295Z,96369.38
2022-10-02T23:51:52.341Z,96377.19
2022-10-02T23:57:24.810Z,96390.53
